createdAt,value
2023-04-11T00:02:22.055Z,5.63
2023-04-11T00:04:49.370Z,5.63
2023-04-11T00:07:17.510Z,5.62
2023-04-11T00:09:44.756Z,5.60
2023-04-11T00:12:11.764Z,5.58
2023-04-11T00:14:38.610Z,5.57
2023-04-11T00:17:06.265Z,5.54
2023-04-11T00:19:34.504Z,5.54
2023-04-11T00:22:01.980Z,5.51
2023-04-11T00:24:29.012Z,5.50
2023-04-11T00:26:57.032Z,5.49
2023-04-11T00:29:25.662Z,5.48
2023-04-11T00:31:55.600Z,5.45
2023-04-11T00:34:22.537Z,5.44
2023-04-11T00:36:49.555Z,5.41
2023-04-11T00:39:20.014Z,5.39
2023-04-11T00:41:47.266Z,5.38
2023-04-11T00:44:14.499Z,5.38
2023-04-11T00:46:46.248Z,5.35
2023-04-11T00:49:13.751Z,5.34
2023-04-11T00:51:40.869Z,5.33
2023-04-11T00:54:10.535Z,5.30
2023-04-11T00:56:37.808Z,5.29
2023-04-11T00:59:07.680Z,5.29
2023-04-11T01:01:36.617Z,5.28
2023-04-11T01:04:04.203Z,5.28
2023-04-11T01:06:33.868Z,5.28
2023-04-11T01:09:00.926Z,5.29
2023-04-11T01:11:27.904Z,5.28
2023-04-11T01:13:56.009Z,5.30
2023-04-11T01:16:22.888Z,5.29
2023-04-11T01:18:50.146Z,5.30
2023-04-11T01:21:19.848Z,5.29
2023-04-11T01:23:49.115Z,5.27
2023-04-11T01:26:16.509Z,5.26
2023-04-11T01:28:43.512Z,5.25
2023-04-11T01:31:10.369Z,5.25
2023-04-11T01:33:37.423Z,5.24
2023-04-11T01:36:04.735Z,5.23
2023-04-11T01:38:31.577Z,5.24
2023-04-11T01:41:00.288Z,5.24
2023-04-11T01:43:29.638Z,5.27
2023-04-11T01:45:57.872Z,5.25
2023-04-11T01:48:25.023Z,5.26
2023-04-11T01:50:53.287Z,5.25
2023-04-11T01:53:20.769Z,5.24
2023-04-11T01:55:48.393Z,5.25
2023-04-11T01:58:15.462Z,5.25
2023-04-11T02:00:44.004Z,5.25
2023-04-11T02:03:11.559Z,5.25
2023-04-11T02:05:39.772Z,5.25
2023-04-11T02:08:06.696Z,5.27
2023-04-11T02:10:33.592Z,5.26
2023-04-11T02:13:00.439Z,5.26
2023-04-11T02:15:28.007Z,5.26
2023-04-11T02:17:56.033Z,5.24
2023-04-11T02:20:23.508Z,5.24
2023-04-11T02:22:51.666Z,5.24
2023-04-11T02:25:18.612Z,5.23
2023-04-11T02:27:45.542Z,5.24
2023-04-11T02:30:12.575Z,5.23
2023-04-11T02:32:39.869Z,5.24
2023-04-11T02:35:10.094Z,5.23
2023-04-11T02:37:37.653Z,5.23
2023-04-11T02:40:05.198Z,5.22
2023-04-11T02:42:32.057Z,5.22
2023-04-11T02:44:59.044Z,5.24
2023-04-11T02:47:26.493Z,5.25
2023-04-11T02:49:54.511Z,5.26
2023-04-11T02:52:21.929Z,5.27
2023-04-11T02:54:48.809Z,5.29
2023-04-11T02:57:18.384Z,5.30
2023-04-11T02:59:45.738Z,5.30
2023-04-11T03:02:13.105Z,5.31
2023-04-11T03:04:44.000Z,5.31
2023-04-11T03:07:12.662Z,5.30
2023-04-11T03:09:39.549Z,5.30
2023-04-11T03:12:09.108Z,5.29
2023-04-11T03:14:38.805Z,5.28
2023-04-11T03:17:05.716Z,5.27
2023-04-11T03:19:32.664Z,5.27
2023-04-11T03:22:02.200Z,5.26
2023-04-11T03:24:30.694Z,5.25
2023-04-11T03:26:59.332Z,5.24
2023-04-11T03:29:26.183Z,5.25
2023-04-11T03:31:55.445Z,5.25
2023-04-11T03:34:23.595Z,5.24
2023-04-11T03:36:50.545Z,5.21
2023-04-11T03:39:22.519Z,5.21
2023-04-11T03:41:49.724Z,5.19
2023-04-11T03:44:16.920Z,5.18
2023-04-11T03:46:44.193Z,5.17
2023-04-11T03:49:11.100Z,5.16
2023-04-11T03:51:39.361Z,5.14
2023-04-11T03:54:07.813Z,5.13
2023-04-11T03:56:34.807Z,5.12
2023-04-11T03:59:02.033Z,5.10
2023-04-11T04:01:28.983Z,5.06
2023-04-11T04:03:56.434Z,5.06
2023-04-11T04:06:23.789Z,5.05
2023-04-11T04:08:50.747Z,5.04
2023-04-11T04:11:17.644Z,5.02
2023-04-11T04:13:44.614Z,5.02
2023-04-11T04:16:11.597Z,5.00
2023-04-11T04:18:38.469Z,4.98
2023-04-11T04:21:07.365Z,4.97
2023-04-11T04:23:36.853Z,4.96
2023-04-11T04:26:04.258Z,4.94
2023-04-11T04:28:31.329Z,4.93
2023-04-11T04:30:58.331Z,4.93
2023-04-11T04:33:27.452Z,4.92
2023-04-11T04:36:00.266Z,4.92
2023-04-11T04:38:29.106Z,4.90
2023-04-11T04:40:56.049Z,4.90
2023-04-11T04:43:24.513Z,4.90
2023-04-11T04:45:51.504Z,4.90
2023-04-11T04:48:20.156Z,4.91
2023-04-11T04:50:46.997Z,4.91
2023-04-11T04:53:15.002Z,4.93
2023-04-11T04:55:41.852Z,4.92
2023-04-11T04:58:09.292Z,4.93
2023-04-11T05:00:36.923Z,4.94
2023-04-11T05:03:06.019Z,4.94
2023-04-11T05:05:33.165Z,4.96
2023-04-11T05:08:02.251Z,4.95
2023-04-11T05:10:30.702Z,4.95
2023-04-11T05:12:57.671Z,4.96
2023-04-11T05:15:24.859Z,4.97
2023-04-11T05:17:51.862Z,4.99
2023-04-11T05:20:19.016Z,5.00
2023-04-11T05:22:47.597Z,5.00
2023-04-11T05:25:14.564Z,5.01
2023-04-11T05:27:42.809Z,5.04
2023-04-11T05:30:10.861Z,5.04
2023-04-11T05:32:38.397Z,5.06
2023-04-11T05:35:06.223Z,5.06
2023-04-11T05:37:33.193Z,5.06
2023-04-11T05:40:00.606Z,5.06
2023-04-11T05:42:27.419Z,5.06
2023-04-11T05:44:54.323Z,5.04
2023-04-11T05:47:21.374Z,5.04
2023-04-11T05:49:49.414Z,5.03
2023-04-11T05:52:16.832Z,5.02
2023-04-11T05:54:44.666Z,5.01
2023-04-11T05:57:12.633Z,4.98
2023-04-11T05:59:39.504Z,4.97
2023-04-11T06:02:06.862Z,4.96
2023-04-11T06:04:34.496Z,4.95
2023-04-11T06:07:03.963Z,4.95
2023-04-11T06:09:32.677Z,4.96
2023-04-11T06:12:02.984Z,4.95
2023-04-11T06:14:32.427Z,4.96
2023-04-11T06:17:00.050Z,4.96
2023-04-11T06:19:27.007Z,4.96
2023-04-11T06:21:53.920Z,4.96
2023-04-11T06:24:35.588Z,4.98
2023-04-11T06:29:31.465Z,5.03
2023-04-11T06:31:59.693Z,5.07
2023-04-11T06:34:28.992Z,5.12
2023-04-11T06:36:57.235Z,5.15
2023-04-11T06:39:24.364Z,5.20
2023-04-11T06:41:51.542Z,5.27
2023-04-11T06:44:21.518Z,5.35
2023-04-11T06:46:49.728Z,5.43
2023-04-11T06:49:19.197Z,5.52
2023-04-11T06:51:54.960Z,5.57
2023-04-11T06:54:23.733Z,5.61
2023-04-11T06:56:50.957Z,5.65
2023-04-11T06:59:21.118Z,5.70
2023-04-11T07:01:49.376Z,5.79
2023-04-11T07:04:16.943Z,5.89
2023-04-11T07:06:44.091Z,6.00
2023-04-11T07:09:13.315Z,6.12
2023-04-11T07:11:40.374Z,6.22
2023-04-11T07:14:07.693Z,6.30
2023-04-11T07:16:35.001Z,6.36
2023-04-11T07:19:03.342Z,6.44
2023-04-11T07:21:33.650Z,6.52
2023-04-11T07:24:04.135Z,6.62
2023-04-11T07:26:32.818Z,6.73
2023-04-11T07:29:00.156Z,6.84
2023-04-11T07:31:28.602Z,6.94
2023-04-11T07:33:56.180Z,7.04
2023-04-11T07:36:23.382Z,7.13
2023-04-11T07:38:52.472Z,7.22
2023-04-11T07:41:19.363Z,7.34
2023-04-11T07:43:51.787Z,7.46
2023-04-11T07:46:21.706Z,7.57
2023-04-11T07:48:51.049Z,7.69
2023-04-11T07:51:18.031Z,7.81
2023-04-11T07:53:49.692Z,7.91
2023-04-11T07:56:19.582Z,8.02
2023-04-11T07:58:49.584Z,8.05
2023-04-11T08:01:24.106Z,8.09
2023-04-11T08:03:54.144Z,8.16
2023-04-11T08:06:21.406Z,8.23
2023-04-11T08:08:50.709Z,8.28
2023-04-11T08:11:17.547Z,8.32
2023-04-11T08:13:48.209Z,8.36
2023-04-11T08:16:15.623Z,8.42
2023-04-11T08:18:43.208Z,8.47
2023-04-11T08:21:11.949Z,8.52
2023-04-11T08:23:41.096Z,8.53
2023-04-11T08:26:09.348Z,8.56
2023-04-11T08:28:36.415Z,8.57
2023-04-11T08:31:05.250Z,8.62
2023-04-11T08:33:33.219Z,8.69
2023-04-11T08:36:02.992Z,8.79
2023-04-11T08:38:29.939Z,8.98
2023-04-11T08:40:57.954Z,9.30
2023-04-11T08:43:24.882Z,9.72
2023-04-11T08:45:55.522Z,10.32
2023-04-11T08:48:25.502Z,10.77
2023-04-11T08:50:53.857Z,10.90
2023-04-11T08:53:25.355Z,10.82
2023-04-11T08:55:52.726Z,10.54
2023-04-11T08:58:20.187Z,10.22
2023-04-11T09:00:47.266Z,9.96
2023-04-11T09:03:17.433Z,9.72
2023-04-11T09:05:46.604Z,9.58
2023-04-11T09:08:17.408Z,9.44
2023-04-11T09:10:48.307Z,9.36
2023-04-11T09:13:24.381Z,9.25
2023-04-11T09:16:12.303Z,9.17
2023-04-11T09:18:40.318Z,9.10
2023-04-11T09:21:12.666Z,9.11
2023-04-11T09:23:40.385Z,9.14
2023-04-11T09:26:12.835Z,9.14
2023-04-11T09:28:45.446Z,9.11
2023-04-11T09:31:13.573Z,9.07
2023-04-11T09:33:53.903Z,8.98
2023-04-11T09:36:24.356Z,8.90
2023-04-11T09:38:54.519Z,8.87
2023-04-11T09:41:39.403Z,8.87
2023-04-11T09:44:06.998Z,8.86
2023-04-11T09:46:34.056Z,8.87
2023-04-11T09:49:02.161Z,8.88
2023-04-11T09:51:36.538Z,8.88
2023-04-11T09:54:05.685Z,8.89
2023-04-11T09:56:36.625Z,8.85
2023-04-11T09:59:05.487Z,8.86
2023-04-11T10:01:33.455Z,8.89
2023-04-11T10:04:01.575Z,8.94
2023-04-11T10:06:39.778Z,9.02
2023-04-11T10:09:11.851Z,9.10
2023-04-11T10:11:43.517Z,9.21
2023-04-11T10:14:39.860Z,9.31
2023-04-11T10:17:23.984Z,9.44
2023-04-11T10:19:56.686Z,9.52
2023-04-11T10:22:46.239Z,9.58
2023-04-11T10:25:25.271Z,9.70
2023-04-11T10:27:54.713Z,9.83
2023-04-11T10:30:39.823Z,9.97
2023-04-11T10:33:17.877Z,10.02
2023-04-11T10:35:58.378Z,10.03
2023-04-11T10:38:37.875Z,9.93
2023-04-11T10:41:23.056Z,9.83
2023-04-11T10:43:50.418Z,9.73
2023-04-11T10:46:25.270Z,9.65
2023-04-11T10:49:02.388Z,9.56
2023-04-11T10:51:32.864Z,9.50
2023-04-11T10:54:00.778Z,9.42
2023-04-11T10:56:44.094Z,9.35
2023-04-11T10:59:32.512Z,9.29
2023-04-11T11:02:03.226Z,9.22
2023-04-11T11:04:36.237Z,9.18
2023-04-11T11:07:14.639Z,9.15
2023-04-11T11:09:41.713Z,9.15
2023-04-11T11:12:17.443Z,9.19
2023-04-11T11:14:47.485Z,9.26
2023-04-11T11:17:16.549Z,9.33
2023-04-11T11:19:45.702Z,9.37
2023-04-11T11:22:26.591Z,9.38
2023-04-11T11:24:54.989Z,9.36
2023-04-11T11:27:23.762Z,9.36
2023-04-11T11:29:51.324Z,9.34
2023-04-11T11:32:25.437Z,9.36
2023-04-11T11:34:53.246Z,9.39
2023-04-11T11:37:22.470Z,9.44
2023-04-11T11:39:51.742Z,9.50
2023-04-11T11:42:19.140Z,9.53
2023-04-11T11:44:46.034Z,9.54
2023-04-11T11:47:17.158Z,9.56
2023-04-11T11:49:52.783Z,9.61
2023-04-11T11:52:37.043Z,9.61
2023-04-11T11:55:08.046Z,9.58
2023-04-11T11:57:37.878Z,9.56
2023-04-11T12:00:10.669Z,9.57
2023-04-11T12:02:39.294Z,9.62
2023-04-11T12:05:07.882Z,9.66
2023-04-11T12:07:38.135Z,9.68
2023-04-11T12:10:11.152Z,9.72
2023-04-11T12:12:40.271Z,9.79
2023-04-11T12:15:17.184Z,9.85
2023-04-11T12:17:48.546Z,9.91
2023-04-11T12:20:16.021Z,9.95
2023-04-11T12:22:43.045Z,9.99
2023-04-11T12:25:14.949Z,9.97
2023-04-11T12:27:43.679Z,9.93
2023-04-11T12:30:12.241Z,9.90
2023-04-11T12:32:39.289Z,9.94
2023-04-11T12:35:07.194Z,9.99
2023-04-11T12:37:35.187Z,10.05
2023-04-11T12:40:15.694Z,10.12
2023-04-11T12:42:56.433Z,10.14
2023-04-11T12:45:24.723Z,10.15
2023-04-11T12:47:51.965Z,10.22
2023-04-11T12:50:19.185Z,10.27
2023-04-11T12:52:46.088Z,10.28
2023-04-11T12:55:15.732Z,10.26
2023-04-11T12:57:43.960Z,10.21
2023-04-11T13:00:21.417Z,10.16
2023-04-11T13:02:49.106Z,10.11
2023-04-11T13:05:17.705Z,10.07
2023-04-11T13:07:45.801Z,10.05
2023-04-11T13:10:14.856Z,10.04
2023-04-11T13:12:48.618Z,10.04
2023-04-11T13:15:16.909Z,10.02
2023-04-11T13:17:44.321Z,10.00
2023-04-11T13:20:11.890Z,9.97
2023-04-11T13:22:43.141Z,9.95
2023-04-11T13:25:11.195Z,9.94
2023-04-11T13:27:39.873Z,9.94
2023-04-11T13:30:08.319Z,9.93
2023-04-11T13:32:35.627Z,9.92
2023-04-11T13:35:04.341Z,9.92
2023-04-11T13:37:31.906Z,9.90
2023-04-11T13:39:59.347Z,9.92
2023-04-11T13:42:26.269Z,9.98
2023-04-11T13:44:57.657Z,10.04
2023-04-11T13:47:24.570Z,10.13
2023-04-11T13:49:54.789Z,10.18
2023-04-11T13:52:25.035Z,10.21
2023-04-11T13:54:53.633Z,10.28
2023-04-11T13:57:21.946Z,10.39
2023-04-11T13:59:48.881Z,10.36
2023-04-11T14:02:16.358Z,10.30
2023-04-11T14:04:44.069Z,10.23
2023-04-11T14:07:11.060Z,10.20
2023-04-11T14:09:38.015Z,10.17
2023-04-11T14:12:04.947Z,10.15
2023-04-11T14:14:31.840Z,10.12
2023-04-11T14:16:58.813Z,10.11
2023-04-11T14:19:27.182Z,10.11
2023-04-11T14:21:54.193Z,10.06
2023-04-11T14:24:22.521Z,9.99
2023-04-11T14:26:50.351Z,9.93
2023-04-11T14:29:17.938Z,9.91
2023-04-11T14:31:45.866Z,9.88
2023-04-11T14:34:12.813Z,9.85
2023-04-11T14:36:40.476Z,9.83
2023-04-11T14:39:07.559Z,9.79
2023-04-11T14:41:36.741Z,9.74
2023-04-11T14:44:03.915Z,9.73
2023-04-11T14:46:32.213Z,9.73
2023-04-11T14:49:00.675Z,9.73
2023-04-11T14:51:29.224Z,9.75
2023-04-11T14:53:57.217Z,9.79
2023-04-11T14:56:25.124Z,9.82
2023-04-11T14:58:52.495Z,9.85
2023-04-11T15:01:22.179Z,9.89
2023-04-11T15:03:49.249Z,9.92
2023-04-11T15:06:16.443Z,9.93
2023-04-11T15:08:43.408Z,9.92
2023-04-11T15:11:13.161Z,9.92
2023-04-11T15:13:40.086Z,9.92
2023-04-11T15:16:08.459Z,9.89
2023-04-11T15:18:35.664Z,9.87
2023-04-11T15:21:03.562Z,9.87
2023-04-11T15:23:30.832Z,9.84
2023-04-11T15:26:02.894Z,9.84
2023-04-11T15:28:34.659Z,9.85
2023-04-11T15:31:02.796Z,9.83
2023-04-11T15:33:32.061Z,9.81
2023-04-11T15:36:00.799Z,9.78
2023-04-11T15:38:29.408Z,9.76
2023-04-11T15:41:00.080Z,9.71
2023-04-11T15:43:27.353Z,9.68
2023-04-11T15:45:54.938Z,9.64
2023-04-11T15:48:21.960Z,9.60
2023-04-11T15:50:49.172Z,9.56
2023-04-11T15:53:16.138Z,9.54
2023-04-11T15:55:43.984Z,9.51
2023-04-11T15:58:11.106Z,9.48
2023-04-11T16:00:42.845Z,9.45
2023-04-11T16:03:11.044Z,9.41
2023-04-11T16:05:40.979Z,9.40
2023-04-11T16:08:08.425Z,9.39
2023-04-11T16:10:36.539Z,9.39
2023-04-11T16:13:04.974Z,9.38
2023-04-11T16:15:32.523Z,9.41
2023-04-11T16:17:59.597Z,9.42
2023-04-11T16:20:26.499Z,9.43
2023-04-11T16:22:53.646Z,9.47
2023-04-11T16:25:21.683Z,9.49
2023-04-11T16:27:48.973Z,9.50
2023-04-11T16:30:17.168Z,9.49
2023-04-11T16:32:44.300Z,9.44
2023-04-11T16:35:11.425Z,9.43
2023-04-11T16:37:38.442Z,9.39
2023-04-11T16:40:16.265Z,9.37
2023-04-11T16:42:44.241Z,9.33
2023-04-11T16:45:12.425Z,9.32
2023-04-11T16:47:39.494Z,9.32
2023-04-11T16:50:07.629Z,9.32
2023-04-11T16:52:35.621Z,9.32
2023-04-11T16:55:04.663Z,9.32
2023-04-11T16:57:33.541Z,9.33
2023-04-11T17:00:05.599Z,9.33
2023-04-11T17:02:33.530Z,9.31
2023-04-11T17:05:03.262Z,9.26
2023-04-11T17:07:30.216Z,9.17
2023-04-11T17:09:58.750Z,9.07
2023-04-11T17:12:27.363Z,8.90
2023-04-11T17:14:57.265Z,8.62
2023-04-11T17:17:25.257Z,8.38
2023-04-11T17:19:52.755Z,8.12
2023-04-11T17:22:21.930Z,7.96
2023-04-11T17:24:48.789Z,7.74
2023-04-11T17:27:16.825Z,7.57
2023-04-11T17:29:43.908Z,7.48
2023-04-11T17:32:14.765Z,7.34
2023-04-11T17:34:42.357Z,7.20
2023-04-11T17:37:09.627Z,7.10
2023-04-11T17:39:36.815Z,6.98
2023-04-11T17:42:06.783Z,6.91
2023-04-11T17:44:34.321Z,6.86
2023-04-11T17:47:01.334Z,6.80
2023-04-11T17:49:28.417Z,6.73
2023-04-11T17:51:59.041Z,6.64
2023-04-11T17:54:27.053Z,6.60
2023-04-11T17:56:55.201Z,6.59
2023-04-11T17:59:25.607Z,6.54
2023-04-11T18:01:56.206Z,6.54
2023-04-11T18:04:23.981Z,6.57
2023-04-11T18:06:50.980Z,6.60
2023-04-11T18:09:18.258Z,6.63
2023-04-11T18:11:45.373Z,6.65
2023-04-11T18:14:12.313Z,6.64
2023-04-11T18:16:41.820Z,6.63
2023-04-11T18:19:09.752Z,6.56
2023-04-11T18:21:39.038Z,6.46
2023-04-11T18:24:06.590Z,6.41
2023-04-11T18:26:34.858Z,6.37
2023-04-11T18:29:06.767Z,6.37
2023-04-11T18:31:35.745Z,6.33
2023-04-11T18:34:06.741Z,6.37
2023-04-11T18:36:34.473Z,6.36
2023-04-11T18:39:01.525Z,6.34
2023-04-11T18:41:38.697Z,6.38
2023-04-11T18:44:06.426Z,6.38
2023-04-11T18:46:35.521Z,6.39
2023-04-11T18:49:05.514Z,6.34
2023-04-11T18:51:34.516Z,6.40
2023-04-11T18:54:01.475Z,6.38
2023-04-11T18:56:30.481Z,6.37
2023-04-11T18:59:04.668Z,6.32
2023-04-11T19:01:35.192Z,6.27
2023-04-11T19:04:05.189Z,6.26
2023-04-11T19:06:32.569Z,6.26
2023-04-11T19:08:59.620Z,6.24
2023-04-11T19:11:26.772Z,6.24
2023-04-11T19:13:54.740Z,6.22
2023-04-11T19:16:21.965Z,6.18
2023-04-11T19:18:49.162Z,6.17
2023-04-11T19:21:16.688Z,6.12
2023-04-11T19:23:43.683Z,6.08
2023-04-11T19:26:10.717Z,6.05
2023-04-11T19:28:38.917Z,6.09
2023-04-11T19:31:05.926Z,6.08
2023-04-11T19:33:36.523Z,6.06
2023-04-11T19:36:04.163Z,5.98
2023-04-11T19:38:31.944Z,5.92
2023-04-11T19:41:10.667Z,5.83
2023-04-11T19:43:37.560Z,5.78
2023-04-11T19:46:05.892Z,5.73
2023-04-11T19:48:34.600Z,5.67
2023-04-11T19:51:02.924Z,5.64
2023-04-11T19:53:35.783Z,5.61
2023-04-11T19:56:11.510Z,5.53
2023-04-11T19:58:38.434Z,5.49
2023-04-11T20:01:07.480Z,5.44
2023-04-11T20:03:34.800Z,5.38
2023-04-11T20:06:05.680Z,5.34
2023-04-11T20:08:32.850Z,5.32
2023-04-11T20:11:00.994Z,5.27
2023-04-11T20:13:28.302Z,5.23
2023-04-11T20:15:55.471Z,5.22
2023-04-11T20:18:24.181Z,5.20
2023-04-11T20:20:51.719Z,5.19
2023-04-11T20:23:18.828Z,5.20
2023-04-11T20:25:46.905Z,5.23
2023-04-11T20:28:13.762Z,5.27
2023-04-11T20:30:42.223Z,5.27
2023-04-11T20:33:09.176Z,5.29
2023-04-11T20:35:36.321Z,5.30
2023-04-11T20:38:03.820Z,5.27
2023-04-11T20:40:31.895Z,5.22
2023-04-11T20:43:02.193Z,5.23
2023-04-11T20:45:30.827Z,5.22
2023-04-11T20:48:01.932Z,5.23
2023-04-11T20:50:33.667Z,5.19
2023-04-11T20:53:04.176Z,5.18
2023-04-11T20:55:34.021Z,5.16
2023-04-11T20:58:01.413Z,5.10
2023-04-11T21:00:29.572Z,5.07
2023-04-11T21:02:57.146Z,5.03
2023-04-11T21:05:25.236Z,5.01
2023-04-11T21:07:55.594Z,5.00
2023-04-11T21:10:22.546Z,5.01
2023-04-11T21:12:51.869Z,4.99
2023-04-11T21:15:20.948Z,4.95
2023-04-11T21:17:48.424Z,4.91
2023-04-11T21:20:18.533Z,4.86
2023-04-11T21:22:47.115Z,4.81
2023-04-11T21:25:14.500Z,4.73
2023-04-11T21:27:41.602Z,4.69
2023-04-11T21:30:09.925Z,4.63
2023-04-11T21:32:36.866Z,4.56
2023-04-11T21:35:09.594Z,4.51
2023-04-11T21:37:41.074Z,4.45
2023-04-11T21:40:08.679Z,4.40
2023-04-11T21:42:36.190Z,4.38
2023-04-11T21:45:03.152Z,4.37
2023-04-11T21:47:30.055Z,4.31
2023-04-11T21:49:59.059Z,4.28
2023-04-11T21:52:26.153Z,4.24
2023-04-11T21:54:56.480Z,4.24
2023-04-11T21:57:24.394Z,4.21
2023-04-11T21:59:51.582Z,4.21
2023-04-11T22:02:19.451Z,4.19
2023-04-11T22:05:05.101Z,4.16
2023-04-11T22:07:55.413Z,4.14
2023-04-11T22:10:23.786Z,4.09
2023-04-11T22:12:54.169Z,4.06
2023-04-11T22:15:21.820Z,4.03
2023-04-11T22:17:51.280Z,4.02
2023-04-11T22:20:18.972Z,4.00
2023-04-11T22:22:46.179Z,3.98
2023-04-11T22:25:14.974Z,3.96
2023-04-11T22:27:41.860Z,3.94
2023-04-11T22:30:10.064Z,3.92
2023-04-11T22:32:38.797Z,3.89
2023-04-11T22:35:08.647Z,3.89
2023-04-11T22:37:36.982Z,3.87
2023-04-11T22:40:06.434Z,3.86
2023-04-11T22:42:33.522Z,3.86
2023-04-11T22:45:00.595Z,3.84
2023-04-11T22:47:29.106Z,3.82
2023-04-11T22:49:55.976Z,3.79
2023-04-11T22:52:26.403Z,3.76
2023-04-11T22:54:53.292Z,3.75
2023-04-11T22:57:20.171Z,3.74
2023-04-11T22:59:47.333Z,3.73
2023-04-11T23:02:14.264Z,3.72
2023-04-11T23:04:41.860Z,3.71
2023-04-11T23:07:08.816Z,3.69
2023-04-11T23:09:35.747Z,3.68
2023-04-11T23:12:03.634Z,3.69
2023-04-11T23:14:32.153Z,3.66
2023-04-11T23:17:00.384Z,3.65
2023-04-11T23:19:27.361Z,3.65
2023-04-11T23:21:54.243Z,3.65
2023-04-11T23:24:21.140Z,3.64
2023-04-11T23:26:50.159Z,3.63
2023-04-11T23:29:17.350Z,3.63
2023-04-11T23:31:44.504Z,3.60
2023-04-11T23:34:11.472Z,3.59
2023-04-11T23:36:39.420Z,3.57
2023-04-11T23:39:13.322Z,3.56
2023-04-11T23:41:40.565Z,3.55
2023-04-11T23:44:08.502Z,3.55
2023-04-11T23:46:35.534Z,3.52
2023-04-11T23:49:02.631Z,3.50
2023-04-11T23:51:29.602Z,3.48
2023-04-11T23:53:57.211Z,3.47
2023-04-11T23:56:24.376Z,3.47
2023-04-11T23:58:51.400Z,3.48
